createdAt,value
2023-08-07T00:02:13.273Z,47.91
2023-08-07T00:04:40.990Z,47.76
2023-08-07T00:07:08.366Z,46.11
2023-08-07T00:09:35.994Z,45.48
2023-08-07T00:12:03.648Z,45.98
2023-08-07T00:14:31.011Z,45.74
2023-08-07T00:21:04.613Z,44.68
2023-08-07T00:23:32.032Z,44.94
2023-08-07T00:25:59.883Z,44.36
2023-08-07T00:28:27.428Z,44.79
2023-08-07T00:30:54.968Z,45.66
2023-08-07T00:33:22.526Z,45.53
2023-08-07T00:35:49.978Z,45.52
2023-08-07T00:38:17.314Z,46.21
2023-08-07T00:40:44.788Z,45.81
2023-08-07T00:43:12.213Z,46.40
2023-08-07T00:45:46.324Z,46.76
2023-08-07T00:48:16.039Z,46.55
2023-08-07T00:50:47.669Z,47.01
2023-08-07T00:53:16.136Z,47.09
2023-08-07T00:55:44.350Z,47.01
2023-08-07T00:58:12.878Z,47.03
2023-08-07T01:00:40.292Z,47.10
2023-08-07T01:03:08.376Z,47.54
2023-08-07T01:05:37.158Z,47.63
2023-08-07T01:08:05.250Z,48.30
2023-08-07T01:11:04.206Z,48.56
2023-08-07T01:13:43.755Z,49.00
2023-08-07T01:16:36.799Z,48.65
2023-08-07T01:19:09.172Z,49.08
2023-08-07T01:21:37.100Z,48.92
2023-08-07T01:24:04.716Z,48.86
2023-08-07T01:26:35.083Z,48.57
2023-08-07T01:29:24.540Z,48.96
2023-08-07T01:31:55.937Z,48.86
2023-08-07T01:34:26.950Z,48.85
2023-08-07T01:36:58.202Z,49.14
2023-08-07T01:39:26.886Z,49.36
2023-08-07T01:41:54.774Z,49.15
2023-08-07T01:44:22.460Z,49.00
2023-08-07T01:46:49.922Z,49.44
2023-08-07T01:49:17.549Z,49.46
2023-08-07T01:51:44.889Z,49.21
2023-08-07T01:54:12.324Z,49.04
2023-08-07T01:56:39.733Z,49.66
2023-08-07T01:59:07.093Z,49.77
2023-08-07T02:01:34.600Z,49.04
2023-08-07T02:04:02.366Z,48.82
2023-08-07T02:06:29.757Z,46.41
2023-08-07T02:08:57.359Z,46.79
2023-08-07T02:11:24.782Z,46.67
2023-08-07T02:13:52.149Z,45.56
2023-08-07T02:16:19.744Z,45.12
2023-08-07T02:18:47.282Z,43.91
2023-08-07T02:21:14.669Z,44.17
2023-08-07T02:23:42.429Z,44.11
2023-08-07T02:26:09.797Z,43.65
2023-08-07T02:28:37.222Z,42.88
2023-08-07T02:31:04.598Z,42.53
2023-08-07T02:33:32.285Z,42.07
2023-08-07T02:36:09.078Z,42.52
2023-08-07T02:38:36.425Z,42.27
2023-08-07T02:41:03.764Z,42.33
2023-08-07T02:43:31.300Z,42.61
2023-08-07T02:45:58.770Z,42.64
2023-08-07T02:48:26.447Z,41.92
2023-08-07T02:50:53.969Z,41.93
2023-08-07T02:53:21.352Z,42.23
2023-08-07T02:55:48.797Z,42.01
2023-08-07T02:58:16.298Z,42.11
2023-08-07T03:00:43.631Z,41.99
2023-08-07T03:03:11.616Z,42.11
2023-08-07T03:05:39.009Z,42.08
2023-08-07T03:08:06.399Z,42.23
2023-08-07T03:10:34.005Z,41.93
2023-08-07T03:13:01.424Z,42.15
2023-08-07T03:15:29.023Z,42.24
2023-08-07T03:17:56.367Z,42.55
2023-08-07T03:20:23.862Z,42.10
2023-08-07T03:22:51.223Z,41.75
2023-08-07T03:25:19.772Z,41.51
2023-08-07T03:27:47.447Z,41.52
2023-08-07T03:30:15.177Z,41.61
2023-08-07T03:32:42.582Z,41.61
2023-08-07T03:35:10.033Z,41.68
2023-08-07T03:37:37.808Z,41.71
2023-08-07T03:40:06.578Z,42.18
2023-08-07T03:42:34.296Z,41.86
2023-08-07T03:45:02.101Z,42.20
2023-08-07T03:47:29.531Z,42.36
2023-08-07T03:49:56.987Z,42.21
2023-08-07T03:52:24.381Z,42.27
2023-08-07T03:54:51.733Z,42.62
2023-08-07T03:57:19.219Z,43.69
2023-08-07T03:59:46.579Z,43.45
2023-08-07T04:02:13.861Z,43.86
2023-08-07T04:04:41.406Z,43.86
2023-08-07T04:07:08.773Z,44.34
2023-08-07T04:09:36.197Z,45.17
2023-08-07T04:12:03.900Z,45.40
2023-08-07T04:14:31.228Z,46.28
2023-08-07T04:16:58.698Z,46.33
2023-08-07T04:19:26.362Z,46.86
2023-08-07T04:21:53.717Z,47.10
2023-08-07T04:24:21.145Z,47.25
2023-08-07T04:26:49.094Z,47.36
2023-08-07T04:29:16.915Z,46.20
2023-08-07T04:31:44.374Z,45.48
2023-08-07T04:34:11.715Z,45.33
2023-08-07T04:36:39.243Z,45.90
2023-08-07T04:39:06.612Z,46.05
2023-08-07T04:41:34.240Z,46.83
2023-08-07T04:44:01.813Z,47.71
2023-08-07T04:46:29.493Z,47.95
2023-08-07T04:48:56.811Z,47.50
2023-08-07T04:51:24.508Z,47.64
2023-08-07T04:53:51.914Z,47.59
2023-08-07T04:56:19.405Z,46.61
2023-08-07T04:58:46.820Z,46.47
2023-08-07T05:01:14.291Z,46.21
2023-08-07T05:03:41.739Z,47.02
2023-08-07T05:06:10.590Z,47.42
2023-08-07T05:08:38.079Z,46.41
2023-08-07T05:11:05.832Z,46.03
2023-08-07T05:13:33.171Z,46.23
2023-08-07T05:16:00.591Z,46.35
2023-08-07T05:18:28.180Z,46.44
2023-08-07T05:20:55.885Z,46.39
2023-08-07T05:23:29.427Z,47.33
2023-08-07T05:25:56.829Z,47.79
2023-08-07T05:28:24.448Z,48.58
2023-08-07T05:30:51.830Z,48.76
2023-08-07T05:33:19.177Z,49.12
2023-08-07T05:35:46.544Z,48.76
2023-08-07T05:38:14.126Z,49.11
2023-08-07T05:40:41.495Z,49.51
2023-08-07T05:47:14.499Z,49.78
2023-08-07T05:49:41.921Z,49.95
2023-08-07T05:52:09.797Z,50.30
2023-08-07T05:54:37.146Z,50.75
2023-08-07T05:57:04.987Z,50.02
2023-08-07T05:59:32.354Z,49.25
2023-08-07T06:02:00.407Z,48.83
2023-08-07T06:04:28.246Z,48.66
2023-08-07T06:06:55.744Z,47.71
2023-08-07T06:09:23.169Z,46.74
2023-08-07T06:11:50.500Z,46.63
2023-08-07T06:14:17.921Z,46.30
2023-08-07T06:16:45.320Z,45.75
2023-08-07T06:19:25.113Z,45.64
2023-08-07T06:21:57.461Z,44.80
2023-08-07T06:24:25.211Z,44.96
2023-08-07T06:26:52.768Z,44.87
2023-08-07T06:29:20.135Z,45.16
2023-08-07T06:31:47.805Z,44.87
2023-08-07T06:34:15.725Z,44.74
2023-08-07T06:36:45.844Z,44.52
2023-08-07T06:39:13.351Z,44.41
2023-08-07T06:41:41.228Z,44.21
2023-08-07T06:44:10.972Z,44.24
2023-08-07T06:46:38.876Z,44.11
2023-08-07T06:49:06.281Z,44.15
2023-08-07T06:51:33.646Z,44.10
2023-08-07T06:54:01.091Z,44.32
2023-08-07T06:56:28.536Z,44.16
2023-08-07T06:58:56.265Z,43.98
2023-08-07T07:01:23.742Z,43.94
2023-08-07T07:03:51.500Z,43.40
2023-08-07T07:06:19.581Z,43.38
2023-08-07T07:08:46.949Z,43.40
2023-08-07T07:11:14.832Z,43.11
2023-08-07T07:13:42.425Z,42.88
2023-08-07T07:16:09.762Z,42.96
2023-08-07T07:18:37.104Z,43.10
2023-08-07T07:21:04.440Z,41.84
2023-08-07T07:23:32.025Z,42.63
2023-08-07T07:26:00.030Z,42.42
2023-08-07T07:28:29.005Z,42.79
2023-08-07T07:30:56.479Z,42.72
2023-08-07T07:33:23.895Z,42.28
2023-08-07T07:35:51.580Z,42.44
2023-08-07T07:38:19.000Z,41.82
2023-08-07T07:40:46.347Z,41.11
2023-08-07T07:43:13.736Z,41.45
2023-08-07T07:45:41.319Z,40.78
2023-08-07T07:48:08.803Z,39.67
2023-08-07T07:50:36.399Z,39.25
2023-08-07T07:53:03.773Z,38.59
2023-08-07T07:55:31.409Z,37.65
2023-08-07T07:57:58.779Z,37.75
2023-08-07T08:00:26.407Z,38.00
2023-08-07T08:02:54.157Z,38.28
2023-08-07T08:05:21.960Z,37.56
2023-08-07T08:07:49.589Z,38.03
2023-08-07T08:10:17.092Z,37.80
2023-08-07T08:12:44.632Z,37.57
2023-08-07T08:15:12.244Z,36.48
2023-08-07T08:17:39.860Z,36.75
2023-08-07T08:20:08.800Z,35.92
2023-08-07T08:22:36.249Z,35.81
2023-08-07T08:25:03.925Z,35.92
2023-08-07T08:27:31.683Z,35.68
2023-08-07T08:29:59.560Z,35.87
2023-08-07T08:32:27.161Z,35.96
2023-08-07T08:34:54.609Z,35.81
2023-08-07T08:37:22.810Z,35.55
2023-08-07T08:39:50.750Z,35.45
2023-08-07T08:42:18.195Z,34.38
2023-08-07T08:45:00.245Z,34.34
2023-08-07T08:47:28.496Z,34.33
2023-08-07T08:50:13.513Z,33.00
2023-08-07T08:52:45.849Z,33.48
2023-08-07T08:55:14.948Z,33.73
2023-08-07T08:57:43.450Z,33.73
2023-08-07T09:00:12.409Z,33.45
2023-08-07T09:02:40.260Z,32.93
2023-08-07T09:05:08.551Z,32.07
2023-08-07T09:07:37.026Z,31.77
2023-08-07T09:10:05.422Z,31.31
2023-08-07T09:12:35.266Z,31.84
2023-08-07T09:15:04.358Z,30.90
2023-08-07T09:17:39.603Z,30.65
2023-08-07T09:20:08.527Z,31.54
2023-08-07T09:22:35.930Z,30.62
2023-08-07T09:25:03.387Z,29.38
2023-08-07T09:27:32.201Z,29.97
2023-08-07T09:30:00.381Z,29.70
2023-08-07T09:32:28.021Z,31.38
2023-08-07T09:34:55.419Z,31.11
2023-08-07T09:37:24.874Z,31.65
2023-08-07T09:39:52.862Z,30.69
2023-08-07T09:42:20.358Z,30.16
2023-08-07T09:44:47.862Z,30.42
2023-08-07T09:47:18.897Z,29.56
2023-08-07T09:49:47.528Z,30.51
2023-08-07T09:52:16.349Z,29.51
2023-08-07T09:54:43.738Z,29.94
2023-08-07T09:57:11.172Z,30.47
2023-08-07T09:59:38.768Z,29.01
2023-08-07T10:02:07.012Z,28.82
2023-08-07T10:04:35.947Z,28.86
2023-08-07T10:07:04.443Z,29.28
2023-08-07T10:09:33.233Z,29.74
2023-08-07T10:12:01.672Z,29.54
2023-08-07T10:14:30.049Z,29.63
2023-08-07T10:16:58.622Z,29.06
2023-08-07T10:19:26.320Z,29.21
2023-08-07T10:21:55.462Z,29.59
2023-08-07T10:24:25.129Z,28.74
2023-08-07T10:26:54.987Z,29.80
2023-08-07T10:29:26.766Z,28.80
2023-08-07T10:31:58.719Z,28.68
2023-08-07T10:34:29.488Z,27.80
2023-08-07T10:36:57.047Z,27.66
2023-08-07T10:39:24.659Z,27.13
2023-08-07T10:41:55.988Z,28.09
2023-08-07T10:44:31.542Z,27.28
2023-08-07T10:46:59.723Z,27.89
2023-08-07T10:49:38.633Z,27.20
2023-08-07T10:52:15.970Z,27.73
2023-08-07T10:54:50.321Z,27.40
2023-08-07T10:57:20.018Z,28.15
2023-08-07T10:59:59.673Z,28.27
2023-08-07T11:02:31.373Z,28.41
2023-08-07T11:04:59.315Z,27.77
2023-08-07T11:07:28.337Z,26.75
2023-08-07T11:09:57.579Z,26.50
2023-08-07T11:12:30.842Z,26.70
2023-08-07T11:14:58.621Z,27.16
2023-08-07T11:17:30.895Z,26.99
2023-08-07T11:19:58.738Z,26.87
2023-08-07T11:22:26.262Z,26.75
2023-08-07T11:24:57.442Z,26.40
2023-08-07T11:27:24.918Z,26.72
2023-08-07T11:29:52.672Z,25.41
2023-08-07T11:32:22.918Z,25.78
2023-08-07T11:34:51.519Z,25.64
2023-08-07T11:37:19.071Z,26.12
2023-08-07T11:39:46.824Z,25.58
2023-08-07T11:42:15.235Z,25.05
2023-08-07T11:44:43.206Z,25.58
2023-08-07T11:47:11.681Z,24.34
2023-08-07T11:49:39.599Z,25.25
2023-08-07T11:52:08.002Z,24.38
2023-08-07T11:54:35.660Z,24.50
2023-08-07T11:57:03.124Z,25.04
2023-08-07T11:59:30.942Z,22.75
2023-08-07T12:01:58.419Z,22.85
2023-08-07T12:04:26.029Z,23.28
2023-08-07T12:06:58.589Z,23.86
2023-08-07T12:09:27.822Z,23.13
2023-08-07T12:12:05.333Z,22.82
2023-08-07T12:14:33.264Z,23.00
2023-08-07T12:17:03.452Z,22.92
2023-08-07T12:19:41.256Z,22.99
2023-08-07T12:22:11.186Z,22.96
2023-08-07T12:24:38.757Z,23.16
2023-08-07T12:27:07.335Z,22.95
2023-08-07T12:29:34.709Z,22.90
2023-08-07T12:32:02.135Z,22.95
2023-08-07T12:37:00.675Z,22.91
2023-08-07T12:44:29.361Z,23.50
2023-08-07T12:46:57.261Z,22.53
2023-08-07T12:49:25.758Z,22.34
2023-08-07T12:51:53.162Z,22.97
